PWSweather.com
Personal Weather Stations
Station Observations
BREAKEY01
Lévis, Breakeyville, QC G6z 7G7

LévisBreakeyville, QC G6z 7G7

Lat: 46.681, Lon: -71.224

Elevation: 328

Station Type: Davis Vantage Pro2

http://www.meteobreakey.com

Latest ConditionsUpdated 7:42:03 PM EDT Thursday, Aug 25, 2016
Currently Today's Max Today's Min Today's Average
Temperature 72.7°F22.6°C 76.8°F24.9°C 65.1°F18.4°C 71.2°F21.8°C
Dew Point 68.9°F20.5°C 71.1°F21.7°C 62.1°F16.7°C 66.1°F18.9°C
Winds 0.9 mph W1.4 kmh W 8.1 mph WSW13.0 kmh WSW - 3.1 mph 5.0 kmh
Wind Gusts 2.9 mph4.7 kmh 16.1 mph25.9 kmh - -
Humidity 88% 94% 75% 84%
Pressure 29.84 in1010.5 mb 29.97 in1014.9 mb 29.81 in1009.5 mb -
Precipitation - 0.07 in1.8 mm - -
Hour Temp Dew Point Humidity Winds Wind Gusts Pressure Precip Precip Rate Daily Precip Total
07:42 PM 72.7°F22.6°C 68.9°F20.5°C 88% 0.9 mph W1.4 kmh W 2.9 mph4.7 kmh 29.84 in1010.5 mb - 0.00 in0.0 mm 0.07 in1.8 mm
07:37 PM 72.9°F22.7°C 69.1°F20.6°C 88% 2.0 mph W3.2 kmh W -- 29.84 in1010.5 mb - 0.00 in0.0 mm 0.07 in1.8 mm
07:32 PM 72.9°F22.7°C 69.1°F20.6°C 88% 4.9 mph WSW7.9 kmh WSW -- 29.83 in1010.2 mb - 0.00 in0.0 mm 0.07 in1.8 mm
07:27 PM 72.9°F22.7°C 68.7°F20.4°C 87% 4.9 mph WSW7.9 kmh WSW 0.9 mph1.4 kmh 29.83 in1010.2 mb - 0.00 in0.0 mm 0.07 in1.8 mm
07:22 PM 73.0°F22.8°C 68.9°F20.5°C 87% 6.9 mph WSW11.1 kmh WSW 4.9 mph7.9 kmh 29.83 in1010.2 mb - 0.00 in0.0 mm 0.07 in1.8 mm
07:17 PM 73.0°F22.8°C 68.9°F20.5°C 87% 6.9 mph WSW11.1 kmh WSW 2.0 mph3.2 kmh 29.83 in1010.2 mb - 0.00 in0.0 mm 0.07 in1.8 mm
07:12 PM 73.0°F22.8°C 68.9°F20.5°C 87% 6.9 mph WSW11.1 kmh WSW 16.1 mph25.9 kmh 29.83 in1010.2 mb - 0.00 in0.0 mm 0.07 in1.8 mm
07:07 PM 73.2°F22.9°C 69.1°F20.6°C 87% 6.9 mph WSW11.1 kmh WSW 4.0 mph6.4 kmh 29.83 in1010.2 mb - 0.00 in0.0 mm 0.07 in1.8 mm
07:02 PM 73.2°F22.9°C 69.1°F20.6°C 87% 6.0 mph W9.7 kmh W 11.0 mph17.7 kmh 29.83 in1010.2 mb - 0.00 in0.0 mm 0.07 in1.8 mm
06:57 PM 73.4°F23.0°C 69.3°F20.7°C 87% 6.0 mph WSW9.7 kmh WSW 4.9 mph7.9 kmh 29.83 in1010.2 mb - 0.00 in0.0 mm 0.07 in1.8 mm
06:52 PM 73.6°F23.1°C 69.1°F20.6°C 86% 6.0 mph WSW9.7 kmh WSW 6.9 mph11.1 kmh 29.83 in1010.2 mb - 0.00 in0.0 mm 0.07 in1.8 mm
06:47 PM 73.8°F23.2°C 69.3°F20.7°C 86% 4.9 mph WSW7.9 kmh WSW 0.9 mph1.4 kmh 29.83 in1010.2 mb - 0.00 in0.0 mm 0.07 in1.8 mm
06:42 PM 73.8°F23.2°C 69.3°F20.7°C 86% 4.9 mph WSW7.9 kmh WSW 4.0 mph6.4 kmh 29.82 in1009.8 mb - 0.00 in0.0 mm 0.07 in1.8 mm
06:37 PM 73.9°F23.3°C 69.4°F20.8°C 86% 4.9 mph WSW7.9 kmh WSW 4.0 mph6.4 kmh 29.83 in1010.2 mb - 0.00 in0.0 mm 0.07 in1.8 mm
06:32 PM 73.9°F23.3°C 69.1°F20.6°C 85% 6.0 mph W9.7 kmh W 6.0 mph9.7 kmh 29.83 in1010.2 mb - 0.00 in0.0 mm 0.07 in1.8 mm
06:27 PM 74.1°F23.4°C 69.3°F20.7°C 85% 6.0 mph WSW9.7 kmh WSW 8.1 mph13.0 kmh 29.82 in1009.8 mb - 0.00 in0.0 mm 0.07 in1.8 mm
06:22 PM 74.1°F23.4°C 68.9°F20.5°C 84% 6.0 mph SW9.7 kmh SW 2.9 mph4.7 kmh 29.83 in1010.2 mb - 0.00 in0.0 mm 0.07 in1.8 mm
06:17 PM 74.5°F23.6°C 69.3°F20.7°C 84% 6.0 mph WSW9.7 kmh WSW 4.0 mph6.4 kmh 29.83 in1010.2 mb - 0.00 in0.0 mm 0.07 in1.8 mm
06:12 PM 74.7°F23.7°C 69.4°F20.8°C 84% 6.9 mph SSW11.1 kmh SSW 4.9 mph7.9 kmh 29.82 in1009.8 mb - 0.00 in0.0 mm 0.07 in1.8 mm
06:07 PM 75.0°F23.9°C 69.4°F20.8°C 83% 6.9 mph WSW11.1 kmh WSW 2.9 mph4.7 kmh 29.82 in1009.8 mb - 0.00 in0.0 mm 0.07 in1.8 mm
06:02 PM 75.2°F24.0°C 69.6°F20.9°C 83% 6.0 mph SW9.7 kmh SW 6.0 mph9.7 kmh 29.83 in1010.2 mb - 0.00 in0.0 mm 0.07 in1.8 mm
05:57 PM 75.6°F24.2°C 69.6°F20.9°C 82% 6.9 mph SW11.1 kmh SW 4.9 mph7.9 kmh 29.82 in1009.8 mb - 0.00 in0.0 mm 0.07 in1.8 mm
05:52 PM 75.7°F24.3°C 69.8°F21.0°C 82% 8.1 mph SSW13.0 kmh SSW 4.9 mph7.9 kmh 29.82 in1009.8 mb - 0.00 in0.0 mm 0.07 in1.8 mm
05:47 PM 75.7°F24.3°C 69.4°F20.8°C 81% 6.9 mph S11.1 kmh S 6.0 mph9.7 kmh 29.82 in1009.8 mb - 0.00 in0.0 mm 0.07 in1.8 mm
05:42 PM 75.9°F24.4°C 69.6°F20.9°C 81% 6.0 mph SW9.7 kmh SW 13.0 mph20.9 kmh 29.83 in1010.2 mb - 0.00 in0.0 mm 0.07 in1.8 mm
05:37 PM 75.9°F24.4°C 69.6°F20.9°C 81% 6.9 mph SW11.1 kmh SW 6.9 mph11.1 kmh 29.83 in1010.2 mb - 0.00 in0.0 mm 0.07 in1.8 mm
05:32 PM 75.9°F24.4°C 69.6°F20.9°C 81% 6.9 mph WSW11.1 kmh WSW 8.1 mph13.0 kmh 29.83 in1010.2 mb - 0.00 in0.0 mm 0.07 in1.8 mm
05:27 PM 76.3°F24.6°C 70.0°F21.1°C 81% 6.0 mph WSW9.7 kmh WSW 4.0 mph6.4 kmh 29.82 in1009.8 mb - 0.00 in0.0 mm 0.07 in1.8 mm
05:22 PM 76.5°F24.7°C 69.8°F21.0°C 80% 6.0 mph WSW9.7 kmh WSW 2.9 mph4.7 kmh 29.82 in1009.8 mb - 0.00 in0.0 mm 0.07 in1.8 mm
05:17 PM 76.6°F24.8°C 70.0°F21.1°C 80% 6.9 mph WSW11.1 kmh WSW 6.9 mph11.1 kmh 29.81 in1009.5 mb - 0.00 in0.0 mm 0.07 in1.8 mm
05:12 PM 76.8°F24.9°C 70.2°F21.2°C 80% 8.1 mph SW13.0 kmh SW 4.9 mph7.9 kmh 29.82 in1009.8 mb - 0.00 in0.0 mm 0.07 in1.8 mm
05:07 PM 76.8°F24.9°C 70.2°F21.2°C 80% 6.9 mph WSW11.1 kmh WSW 12.1 mph19.5 kmh 29.81 in1009.5 mb - 0.00 in0.0 mm 0.07 in1.8 mm
05:02 PM 76.8°F24.9°C 69.8°F21.0°C 79% 6.9 mph SW11.1 kmh SW 4.0 mph6.4 kmh 29.81 in1009.5 mb - 0.00 in0.0 mm 0.07 in1.8 mm
04:57 PM 76.8°F24.9°C 69.8°F21.0°C 79% 6.0 mph WSW9.7 kmh WSW 4.9 mph7.9 kmh 29.82 in1009.8 mb - 0.00 in0.0 mm 0.07 in1.8 mm
04:52 PM 76.8°F24.9°C 70.2°F21.2°C 80% 6.0 mph SW9.7 kmh SW 4.9 mph7.9 kmh 29.82 in1009.8 mb - 0.00 in0.0 mm 0.07 in1.8 mm
04:47 PM 76.6°F24.8°C 70.3°F21.3°C 81% 6.0 mph WSW9.7 kmh WSW 8.1 mph13.0 kmh 29.82 in1009.8 mb - 0.00 in0.0 mm 0.07 in1.8 mm
04:42 PM 76.5°F24.7°C 70.2°F21.2°C 81% 4.9 mph WSW7.9 kmh WSW 8.9 mph14.3 kmh 29.82 in1009.8 mb - 0.00 in0.0 mm 0.07 in1.8 mm
04:37 PM 76.5°F24.7°C 70.5°F21.4°C 82% 4.0 mph WSW6.4 kmh WSW 4.9 mph7.9 kmh 29.82 in1009.8 mb - 0.00 in0.0 mm 0.07 in1.8 mm
04:32 PM 76.5°F24.7°C 70.5°F21.4°C 82% 4.9 mph WSW7.9 kmh WSW 0.9 mph1.4 kmh 29.82 in1009.8 mb - 0.00 in0.0 mm 0.07 in1.8 mm
04:27 PM 76.3°F24.6°C 70.0°F21.1°C 81% 6.0 mph WSW9.7 kmh WSW 2.9 mph4.7 kmh 29.82 in1009.8 mb - 0.00 in0.0 mm 0.07 in1.8 mm
04:22 PM 76.3°F24.6°C 70.3°F21.3°C 82% 6.0 mph WSW9.7 kmh WSW 12.1 mph19.5 kmh 29.82 in1009.8 mb - 0.00 in0.0 mm 0.07 in1.8 mm
04:17 PM 76.3°F24.6°C 70.7°F21.5°C 83% 4.0 mph WSW6.4 kmh WSW 10.1 mph16.3 kmh 29.82 in1009.8 mb - 0.00 in0.0 mm 0.07 in1.8 mm
04:12 PM 76.3°F24.6°C 71.1°F21.7°C 84% 2.0 mph SW3.2 kmh SW 13.0 mph20.9 kmh 29.81 in1009.5 mb - 0.00 in0.0 mm 0.07 in1.8 mm
04:07 PM 75.9°F24.4°C 71.1°F21.7°C 85% 2.9 mph WSW4.7 kmh WSW 0.9 mph1.4 kmh 29.82 in1009.8 mb - 0.00 in0.0 mm 0.07 in1.8 mm
04:02 PM 75.7°F24.3°C 70.9°F21.6°C 85% 2.0 mph WSW3.2 kmh WSW -- 29.82 in1009.8 mb - 0.00 in0.0 mm 0.07 in1.8 mm
03:57 PM 75.6°F24.2°C 70.7°F21.5°C 85% 2.0 mph WSW3.2 kmh WSW 2.0 mph3.2 kmh 29.81 in1009.5 mb - 0.00 in0.0 mm 0.07 in1.8 mm
03:52 PM 75.6°F24.2°C 70.3°F21.3°C 84% 2.0 mph WSW3.2 kmh WSW 4.0 mph6.4 kmh 29.82 in1009.8 mb - 0.00 in0.0 mm 0.07 in1.8 mm
03:47 PM 75.7°F24.3°C 70.2°F21.2°C 83% 0.9 mph NW1.4 kmh NW -- 29.82 in1009.8 mb - 0.00 in0.0 mm 0.07 in1.8 mm
03:42 PM 75.7°F24.3°C 70.2°F21.2°C 83% 0.9 mph WNW1.4 kmh WNW 0.9 mph1.4 kmh 29.82 in1009.8 mb - 0.00 in0.0 mm 0.07 in1.8 mm
03:37 PM 75.9°F24.4°C 70.3°F21.3°C 83% 2.0 mph W3.2 kmh W -- 29.83 in1010.2 mb - 0.00 in0.0 mm 0.07 in1.8 mm
03:32 PM 76.1°F24.5°C 70.2°F21.2°C 82% 2.0 mph NW3.2 kmh NW 0.9 mph1.4 kmh 29.83 in1010.2 mb - 0.00 in0.0 mm 0.07 in1.8 mm
03:27 PM 76.3°F24.6°C 70.7°F21.5°C 83% 2.0 mph WNW3.2 kmh WNW 2.0 mph3.2 kmh 29.83 in1010.2 mb - 0.00 in0.0 mm 0.07 in1.8 mm
03:22 PM 76.3°F24.6°C 70.7°F21.5°C 83% 2.9 mph WNW4.7 kmh WNW 0.9 mph1.4 kmh 29.83 in1010.2 mb - 0.00 in0.0 mm 0.07 in1.8 mm
03:17 PM 76.3°F24.6°C 70.3°F21.3°C 82% 2.0 mph NW3.2 kmh NW 0.9 mph1.4 kmh 29.83 in1010.2 mb - 0.00 in0.0 mm 0.07 in1.8 mm
03:12 PM 76.1°F24.5°C 70.2°F21.2°C 82% 2.9 mph W4.7 kmh W 0.9 mph1.4 kmh 29.83 in1010.2 mb - 0.00 in0.0 mm 0.07 in1.8 mm
03:07 PM 76.1°F24.5°C 70.2°F21.2°C 82% 2.9 mph NW4.7 kmh NW -- 29.83 in1010.2 mb - 0.00 in0.0 mm 0.07 in1.8 mm
03:02 PM 76.3°F24.6°C 70.3°F21.3°C 82% 2.9 mph W4.7 kmh W 2.0 mph3.2 kmh 29.83 in1010.2 mb - 0.00 in0.0 mm 0.07 in1.8 mm
02:57 PM 76.3°F24.6°C 70.0°F21.1°C 81% 2.9 mph NW4.7 kmh NW 2.9 mph4.7 kmh 29.83 in1010.2 mb - 0.00 in0.0 mm 0.07 in1.8 mm
02:52 PM 76.3°F24.6°C 70.3°F21.3°C 82% 2.9 mph SW4.7 kmh SW 4.9 mph7.9 kmh 29.83 in1010.2 mb - 0.00 in0.0 mm 0.07 in1.8 mm
02:47 PM 76.5°F24.7°C 70.5°F21.4°C 82% 4.0 mph WSW6.4 kmh WSW 4.0 mph6.4 kmh 29.83 in1010.2 mb - 0.00 in0.0 mm 0.07 in1.8 mm
02:42 PM 76.3°F24.6°C 70.0°F21.1°C 81% 4.9 mph WSW7.9 kmh WSW 4.0 mph6.4 kmh 29.83 in1010.2 mb - 0.00 in0.0 mm 0.07 in1.8 mm
02:37 PM 76.3°F24.6°C 70.0°F21.1°C 81% 6.9 mph WSW11.1 kmh WSW 8.1 mph13.0 kmh 29.83 in1010.2 mb - 0.00 in0.0 mm 0.07 in1.8 mm
02:32 PM 76.3°F24.6°C 70.3°F21.3°C 82% 6.9 mph W11.1 kmh W 0.9 mph1.4 kmh 29.83 in1010.2 mb - 0.00 in0.0 mm 0.07 in1.8 mm
02:27 PM 76.1°F24.5°C 69.8°F21.0°C 81% 6.9 mph WSW11.1 kmh WSW 6.9 mph11.1 kmh 29.82 in1009.8 mb - 0.00 in0.0 mm 0.07 in1.8 mm
02:22 PM 75.9°F24.4°C 69.6°F20.9°C 81% 8.1 mph WSW13.0 kmh WSW 4.9 mph7.9 kmh 29.82 in1009.8 mb - 0.00 in0.0 mm 0.07 in1.8 mm
02:17 PM 75.9°F24.4°C 70.0°F21.1°C 82% 6.0 mph SSW9.7 kmh SSW 4.9 mph7.9 kmh 29.82 in1009.8 mb - 0.00 in0.0 mm 0.07 in1.8 mm
02:12 PM 75.9°F24.4°C 70.7°F21.5°C 84% 4.9 mph WSW7.9 kmh WSW 8.1 mph13.0 kmh 29.82 in1009.8 mb - 0.00 in0.0 mm 0.07 in1.8 mm
02:07 PM 75.6°F24.2°C 70.7°F21.5°C 85% 4.0 mph SW6.4 kmh SW 2.9 mph4.7 kmh 29.83 in1010.2 mb - 0.00 in0.0 mm 0.07 in1.8 mm
02:02 PM 75.2°F24.0°C 70.7°F21.5°C 86% 4.9 mph WSW7.9 kmh WSW 8.9 mph14.3 kmh 29.83 in1010.2 mb - 0.00 in0.0 mm 0.07 in1.8 mm
01:57 PM 74.8°F23.8°C 70.0°F21.1°C 85% 4.9 mph WNW7.9 kmh WNW 4.0 mph6.4 kmh 29.83 in1010.2 mb - 0.00 in0.0 mm 0.07 in1.8 mm
01:52 PM 74.7°F23.7°C 69.8°F21.0°C 85% 6.0 mph SW9.7 kmh SW 6.0 mph9.7 kmh 29.83 in1010.2 mb - 0.00 in0.0 mm 0.07 in1.8 mm
01:47 PM 74.7°F23.7°C 69.8°F21.0°C 85% 8.1 mph SW13.0 kmh SW 2.0 mph3.2 kmh 29.83 in1010.2 mb - 0.00 in0.0 mm 0.07 in1.8 mm
01:42 PM 74.5°F23.6°C 69.3°F20.7°C 84% 8.1 mph WSW13.0 kmh WSW 6.0 mph9.7 kmh 29.83 in1010.2 mb - 0.00 in0.0 mm 0.07 in1.8 mm
01:37 PM 74.7°F23.7°C 70.2°F21.2°C 86% 4.9 mph SW7.9 kmh SW 11.0 mph17.7 kmh 29.84 in1010.5 mb - 0.00 in0.0 mm 0.07 in1.8 mm
01:32 PM 74.5°F23.6°C 70.3°F21.3°C 87% 4.9 mph SW7.9 kmh SW 6.0 mph9.7 kmh 29.83 in1010.2 mb - 0.00 in0.0 mm 0.07 in1.8 mm
01:27 PM 74.1°F23.4°C 70.3°F21.3°C 88% 6.9 mph WSW11.1 kmh WSW 2.9 mph4.7 kmh 29.84 in1010.5 mb - 0.00 in0.0 mm 0.07 in1.8 mm
01:22 PM 73.6°F23.1°C 70.2°F21.2°C 89% 6.9 mph WSW11.1 kmh WSW 8.1 mph13.0 kmh 29.83 in1010.2 mb - 0.00 in0.0 mm 0.07 in1.8 mm
01:17 PM 72.9°F22.7°C 70.3°F21.3°C 92% 4.9 mph WSW7.9 kmh WSW 10.1 mph16.3 kmh 29.83 in1010.2 mb - 0.00 in0.0 mm 0.07 in1.8 mm
01:12 PM 72.0°F22.2°C 69.4°F20.8°C 92% 4.0 mph WSW6.4 kmh WSW 8.9 mph14.3 kmh 29.83 in1010.2 mb - 0.00 in0.0 mm 0.07 in1.8 mm
01:07 PM 71.4°F21.9°C 68.9°F20.5°C 92% 4.9 mph SW7.9 kmh SW 4.0 mph6.4 kmh 29.84 in1010.5 mb - 0.00 in0.0 mm 0.07 in1.8 mm
01:02 PM 71.2°F21.8°C 68.7°F20.4°C 92% 4.9 mph SSW7.9 kmh SSW -- 29.84 in1010.5 mb - 0.00 in0.0 mm 0.07 in1.8 mm
12:57 PM 71.2°F21.8°C 69.1°F20.6°C 93% 4.9 mph SW7.9 kmh SW 4.0 mph6.4 kmh 29.84 in1010.5 mb - 0.00 in0.0 mm 0.07 in1.8 mm
12:52 PM 71.1°F21.7°C 69.3°F20.7°C 94% 4.0 mph SSW6.4 kmh SSW 4.9 mph7.9 kmh 29.84 in1010.5 mb - 0.00 in0.0 mm 0.07 in1.8 mm
12:47 PM 70.3°F21.3°C 68.2°F20.1°C 93% 2.9 mph WSW4.7 kmh WSW 10.1 mph16.3 kmh 29.84 in1010.5 mb - 0.00 in0.0 mm 0.07 in1.8 mm
12:42 PM 70.2°F21.2°C 68.0°F20.0°C 93% 4.0 mph SW6.4 kmh SW 2.9 mph4.7 kmh 29.84 in1010.5 mb - 0.00 in0.0 mm 0.07 in1.8 mm
12:37 PM 70.0°F21.1°C 67.8°F19.9°C 93% 4.9 mph WSW7.9 kmh WSW 4.9 mph7.9 kmh 29.85 in1010.8 mb - 0.00 in0.0 mm 0.07 in1.8 mm
12:32 PM 69.6°F20.9°C 67.5°F19.7°C 93% 4.9 mph SW7.9 kmh SW 4.9 mph7.9 kmh 29.85 in1010.8 mb - 0.00 in0.0 mm 0.07 in1.8 mm
12:27 PM 69.4°F20.8°C 67.3°F19.6°C 93% 4.0 mph SW6.4 kmh SW 4.9 mph7.9 kmh 29.85 in1010.8 mb - 0.00 in0.0 mm 0.07 in1.8 mm
12:22 PM 69.4°F20.8°C 67.3°F19.6°C 93% 2.9 mph WSW4.7 kmh WSW 11.0 mph17.7 kmh 29.85 in1010.8 mb - 0.03 in0.8 mm 0.07 in1.8 mm
12:17 PM 69.4°F20.8°C 67.1°F19.5°C 92% 4.9 mph WSW7.9 kmh WSW 2.0 mph3.2 kmh 29.85 in1010.8 mb - 0.05 in1.3 mm 0.07 in1.8 mm
12:12 PM 69.6°F20.9°C 67.3°F19.6°C 92% 4.9 mph WNW7.9 kmh WNW 2.0 mph3.2 kmh 29.86 in1011.2 mb - 0.09 in2.3 mm 0.07 in1.8 mm
12:07 PM 69.6°F20.9°C 67.3°F19.6°C 92% 4.0 mph WSW6.4 kmh WSW 6.0 mph9.7 kmh 29.86 in1011.2 mb - 0.17 in4.3 mm 0.06 in1.5 mm
12:02 PM 69.8°F21.0°C 67.1°F19.5°C 91% 4.0 mph SW6.4 kmh SW 6.9 mph11.1 kmh 29.86 in1011.2 mb - 0.00 in0.0 mm 0.05 in1.3 mm
11:57 AM 70.0°F21.1°C 66.9°F19.4°C 90% 4.0 mph WSW6.4 kmh WSW 6.9 mph11.1 kmh 29.86 in1011.2 mb - 0.03 in0.8 mm 0.05 in1.3 mm
11:52 AM 70.2°F21.2°C 66.7°F19.3°C 89% 6.0 mph SW9.7 kmh SW 4.0 mph6.4 kmh 29.86 in1011.2 mb - 0.05 in1.3 mm 0.05 in1.3 mm
11:47 AM 70.7°F21.5°C 66.6°F19.2°C 87% 8.1 mph W13.0 kmh W 2.9 mph4.7 kmh 29.86 in1011.2 mb - 0.10 in2.5 mm 0.05 in1.3 mm
11:42 AM 71.8°F22.1°C 66.7°F19.3°C 84% 8.1 mph WSW13.0 kmh WSW 4.0 mph6.4 kmh 29.86 in1011.2 mb - 0.31 in7.9 mm 0.03 in0.8 mm
11:37 AM 73.0°F22.8°C 67.3°F19.6°C 82% 8.1 mph WSW13.0 kmh WSW 6.9 mph11.1 kmh 29.86 in1011.2 mb - 0.00 in0.0 mm 0.01 in0.3 mm
11:32 AM 73.8°F23.2°C 66.9°F19.4°C 79% 8.1 mph WSW13.0 kmh WSW 6.9 mph11.1 kmh 29.86 in1011.2 mb - 0.00 in0.0 mm 0.00 in0.0 mm
11:27 AM 74.5°F23.6°C 67.1°F19.5°C 78% 6.9 mph W11.1 kmh W 8.1 mph13.0 kmh 29.86 in1011.2 mb - 0.00 in0.0 mm 0.00 in0.0 mm
11:22 AM 74.7°F23.7°C 66.6°F19.2°C 76% 6.0 mph SW9.7 kmh SW 4.0 mph6.4 kmh 29.85 in1010.8 mb - 0.00 in0.0 mm 0.00 in0.0 mm
11:17 AM 74.8°F23.8°C 66.7°F19.3°C 76% 4.9 mph W7.9 kmh W 0.9 mph1.4 kmh 29.85 in1010.8 mb - 0.00 in0.0 mm 0.00 in0.0 mm
11:12 AM 74.7°F23.7°C 66.6°F19.2°C 76% 4.9 mph WSW7.9 kmh WSW 4.9 mph7.9 kmh 29.85 in1010.8 mb - 0.00 in0.0 mm 0.00 in0.0 mm
11:07 AM 74.7°F23.7°C 66.6°F19.2°C 76% 4.9 mph WSW7.9 kmh WSW 8.1 mph13.0 kmh 29.84 in1010.5 mb - 0.00 in0.0 mm 0.00 in0.0 mm
11:02 AM 74.7°F23.7°C 66.6°F19.2°C 76% 4.9 mph SW7.9 kmh SW 6.0 mph9.7 kmh 29.84 in1010.5 mb - 0.00 in0.0 mm 0.00 in0.0 mm
10:57 AM 74.7°F23.7°C 66.2°F19.0°C 75% 6.0 mph W9.7 kmh W 6.9 mph11.1 kmh 29.84 in1010.5 mb - 0.00 in0.0 mm 0.00 in0.0 mm
10:52 AM 74.8°F23.8°C 66.7°F19.3°C 76% 6.0 mph SW9.7 kmh SW 4.9 mph7.9 kmh 29.84 in1010.5 mb - 0.00 in0.0 mm 0.00 in0.0 mm
10:47 AM 74.8°F23.8°C 66.4°F19.1°C 75% 4.0 mph WSW6.4 kmh WSW 8.1 mph13.0 kmh 29.85 in1010.8 mb - 0.00 in0.0 mm 0.00 in0.0 mm
10:42 AM 74.8°F23.8°C 66.7°F19.3°C 76% 4.0 mph WSW6.4 kmh WSW 4.0 mph6.4 kmh 29.85 in1010.8 mb - 0.00 in0.0 mm 0.00 in0.0 mm
10:37 AM 75.0°F23.9°C 66.9°F19.4°C 76% 4.9 mph WSW7.9 kmh WSW 6.9 mph11.1 kmh 29.85 in1010.8 mb - 0.00 in0.0 mm 0.00 in0.0 mm
10:32 AM 74.7°F23.7°C 67.3°F19.6°C 78% 4.0 mph WSW6.4 kmh WSW 2.0 mph3.2 kmh 29.85 in1010.8 mb - 0.00 in0.0 mm 0.00 in0.0 mm
10:27 AM 74.5°F23.6°C 67.1°F19.5°C 78% 4.0 mph WSW6.4 kmh WSW 2.0 mph3.2 kmh 29.85 in1010.8 mb - 0.00 in0.0 mm 0.00 in0.0 mm
10:22 AM 74.1°F23.4°C 67.1°F19.5°C 79% 4.0 mph WSW6.4 kmh WSW 2.9 mph4.7 kmh 29.86 in1011.2 mb - 0.00 in0.0 mm 0.00 in0.0 mm
10:17 AM 73.8°F23.2°C 67.3°F19.6°C 80% 2.9 mph WSW4.7 kmh WSW 6.0 mph9.7 kmh 29.86 in1011.2 mb - 0.00 in0.0 mm 0.00 in0.0 mm
10:12 AM 73.4°F23.0°C 67.3°F19.6°C 81% 2.0 mph WSW3.2 kmh WSW -- 29.86 in1011.2 mb - 0.00 in0.0 mm 0.00 in0.0 mm
10:07 AM 73.0°F22.8°C 67.3°F19.6°C 82% 2.9 mph WNW4.7 kmh WNW 2.0 mph3.2 kmh 29.86 in1011.2 mb - 0.00 in0.0 mm 0.00 in0.0 mm
10:02 AM 73.0°F22.8°C 66.9°F19.4°C 81% 2.0 mph W3.2 kmh W 2.9 mph4.7 kmh 29.86 in1011.2 mb - 0.00 in0.0 mm 0.00 in0.0 mm
09:57 AM 72.9°F22.7°C 67.1°F19.5°C 82% 2.0 mph W3.2 kmh W 2.9 mph4.7 kmh 29.86 in1011.2 mb - 0.00 in0.0 mm 0.00 in0.0 mm
09:52 AM 72.9°F22.7°C 66.7°F19.3°C 81% 2.9 mph SW4.7 kmh SW 4.0 mph6.4 kmh 29.86 in1011.2 mb - 0.00 in0.0 mm 0.00 in0.0 mm
09:47 AM 72.9°F22.7°C 66.7°F19.3°C 81% 4.0 mph WSW6.4 kmh WSW 4.0 mph6.4 kmh 29.86 in1011.2 mb - 0.00 in0.0 mm 0.00 in0.0 mm
09:42 AM 72.9°F22.7°C 66.4°F19.1°C 80% 4.0 mph WSW6.4 kmh WSW 4.9 mph7.9 kmh 29.86 in1011.2 mb - 0.00 in0.0 mm 0.00 in0.0 mm
09:37 AM 73.2°F22.9°C 66.7°F19.3°C 80% 4.0 mph WSW6.4 kmh WSW 6.9 mph11.1 kmh 29.87 in1011.5 mb - 0.00 in0.0 mm 0.00 in0.0 mm
09:32 AM 73.0°F22.8°C 65.8°F18.8°C 78% 4.9 mph W7.9 kmh W 6.0 mph9.7 kmh 29.87 in1011.5 mb - 0.00 in0.0 mm 0.00 in0.0 mm
09:27 AM 73.0°F22.8°C 66.2°F19.0°C 79% 4.0 mph W6.4 kmh W 6.9 mph11.1 kmh 29.87 in1011.5 mb - 0.00 in0.0 mm 0.00 in0.0 mm
09:22 AM 72.9°F22.7°C 66.4°F19.1°C 80% 4.0 mph WSW6.4 kmh WSW 2.0 mph3.2 kmh 29.87 in1011.5 mb - 0.00 in0.0 mm 0.00 in0.0 mm
09:17 AM 72.5°F22.5°C 66.0°F18.9°C 80% 2.9 mph WSW4.7 kmh WSW 2.0 mph3.2 kmh 29.87 in1011.5 mb - 0.00 in0.0 mm 0.00 in0.0 mm
09:12 AM 72.3°F22.4°C 66.2°F19.0°C 81% 2.0 mph WSW3.2 kmh WSW -- 29.86 in1011.2 mb - 0.00 in0.0 mm 0.00 in0.0 mm
09:07 AM 72.0°F22.2°C 65.8°F18.8°C 81% 2.0 mph WSW3.2 kmh WSW 4.0 mph6.4 kmh 29.86 in1011.2 mb - 0.00 in0.0 mm 0.00 in0.0 mm
09:02 AM 71.8°F22.1°C 66.0°F18.9°C 82% 2.0 mph WSW3.2 kmh WSW 0.9 mph1.4 kmh 29.86 in1011.2 mb - 0.00 in0.0 mm 0.00 in0.0 mm
08:57 AM 71.2°F21.8°C 65.5°F18.6°C 82% 2.0 mph WSW3.2 kmh WSW -- 29.86 in1011.2 mb - 0.00 in0.0 mm 0.00 in0.0 mm
08:52 AM 70.9°F21.6°C 65.5°F18.6°C 83% 0.9 mph WSW1.4 kmh WSW 0.9 mph1.4 kmh 29.86 in1011.2 mb - 0.00 in0.0 mm 0.00 in0.0 mm
08:47 AM 70.5°F21.4°C 65.5°F18.6°C 84% 0.9 mph WSW1.4 kmh WSW 0.9 mph1.4 kmh 29.86 in1011.2 mb - 0.00 in0.0 mm 0.00 in0.0 mm
08:42 AM 70.2°F21.2°C 65.5°F18.6°C 85% 0.9 mph WSW1.4 kmh WSW -- 29.86 in1011.2 mb - 0.00 in0.0 mm 0.00 in0.0 mm
08:37 AM 69.8°F21.0°C 65.1°F18.4°C 85% 0.9 mph WSW1.4 kmh WSW 2.0 mph3.2 kmh 29.86 in1011.2 mb - 0.00 in0.0 mm 0.00 in0.0 mm
08:32 AM 69.6°F20.9°C 64.9°F18.3°C 85% 0.9 mph WSW1.4 kmh WSW 4.0 mph6.4 kmh 29.87 in1011.5 mb - 0.00 in0.0 mm 0.00 in0.0 mm
08:27 AM 69.4°F20.8°C 64.8°F18.2°C 85% 0.9 mph WSW1.4 kmh WSW 2.0 mph3.2 kmh 29.87 in1011.5 mb - 0.00 in0.0 mm 0.00 in0.0 mm
08:22 AM 69.4°F20.8°C 64.8°F18.2°C 85% 0.9 mph WSW1.4 kmh WSW -- 29.87 in1011.5 mb - 0.00 in0.0 mm 0.00 in0.0 mm
08:17 AM 69.4°F20.8°C 64.4°F18.0°C 84% 0.9 mph WSW1.4 kmh WSW 0.9 mph1.4 kmh 29.87 in1011.5 mb - 0.00 in0.0 mm 0.00 in0.0 mm
08:12 AM 69.4°F20.8°C 64.4°F18.0°C 84% 2.0 mph WSW3.2 kmh WSW 2.9 mph4.7 kmh 29.88 in1011.9 mb - 0.00 in0.0 mm 0.00 in0.0 mm
08:07 AM 69.4°F20.8°C 64.0°F17.8°C 83% 2.0 mph WSW3.2 kmh WSW -- 29.88 in1011.9 mb - 0.00 in0.0 mm 0.00 in0.0 mm
08:02 AM 69.3°F20.7°C 63.9°F17.7°C 83% 0.9 mph W1.4 kmh W 0.9 mph1.4 kmh 29.88 in1011.9 mb - 0.00 in0.0 mm 0.00 in0.0 mm
07:57 AM 69.1°F20.6°C 63.7°F17.6°C 83% 0.9 mph W1.4 kmh W 0.9 mph1.4 kmh 29.88 in1011.9 mb - 0.00 in0.0 mm 0.00 in0.0 mm
07:52 AM 68.7°F20.4°C 63.3°F17.4°C 83% 0.9 mph WSW1.4 kmh WSW -- 29.88 in1011.9 mb - 0.00 in0.0 mm 0.00 in0.0 mm
07:47 AM 68.5°F20.3°C 63.5°F17.5°C 84% 0.9 mph WSW1.4 kmh WSW 2.0 mph3.2 kmh 29.88 in1011.9 mb - 0.00 in0.0 mm 0.00 in0.0 mm
07:42 AM 68.5°F20.3°C 63.9°F17.7°C 85% 0.9 mph WSW1.4 kmh WSW -- 29.87 in1011.5 mb - 0.00 in0.0 mm 0.00 in0.0 mm
07:37 AM 68.2°F20.1°C 63.5°F17.5°C 85% 0.9 mph WSW1.4 kmh WSW 2.9 mph4.7 kmh 29.87 in1011.5 mb - 0.00 in0.0 mm 0.00 in0.0 mm
07:32 AM 68.0°F20.0°C 63.7°F17.6°C 86% 0.9 mph SW1.4 kmh SW 0.9 mph1.4 kmh 29.87 in1011.5 mb - 0.00 in0.0 mm 0.00 in0.0 mm
07:27 AM 67.6°F19.8°C 63.3°F17.4°C 86% 0.9 mph WSW1.4 kmh WSW -- 29.88 in1011.9 mb - 0.00 in0.0 mm 0.00 in0.0 mm
07:22 AM 67.5°F19.7°C 63.5°F17.5°C 87% Calm Calm 2.9 mph4.7 kmh 29.88 in1011.9 mb - 0.00 in0.0 mm 0.00 in0.0 mm
07:17 AM 67.1°F19.5°C 63.5°F17.5°C 88% Calm Calm -- 29.88 in1011.9 mb - 0.00 in0.0 mm 0.00 in0.0 mm
07:12 AM 66.9°F19.4°C 63.3°F17.4°C 88% Calm Calm -- 29.88 in1011.9 mb - 0.00 in0.0 mm 0.00 in0.0 mm
07:07 AM 66.7°F19.3°C 63.3°F17.4°C 89% Calm Calm -- 29.88 in1011.9 mb - 0.00 in0.0 mm 0.00 in0.0 mm
07:02 AM 66.6°F19.2°C 63.5°F17.5°C 90% Calm Calm -- 29.88 in1011.9 mb - 0.00 in0.0 mm 0.00 in0.0 mm
06:57 AM 66.4°F19.1°C 63.3°F17.4°C 90% Calm Calm -- 29.88 in1011.9 mb - 0.00 in0.0 mm 0.00 in0.0 mm
06:52 AM 66.0°F18.9°C 63.0°F17.2°C 90% Calm Calm -- 29.88 in1011.9 mb - 0.00 in0.0 mm 0.00 in0.0 mm
06:47 AM 66.0°F18.9°C 62.6°F17.0°C 89% Calm Calm -- 29.88 in1011.9 mb - 0.00 in0.0 mm 0.00 in0.0 mm
06:42 AM 65.8°F18.8°C 62.4°F16.9°C 89% Calm Calm -- 29.89 in1012.2 mb - 0.00 in0.0 mm 0.00 in0.0 mm
06:37 AM 65.8°F18.8°C 62.4°F16.9°C 89% Calm Calm -- 29.89 in1012.2 mb - 0.00 in0.0 mm 0.00 in0.0 mm
06:32 AM 65.8°F18.8°C 62.2°F16.8°C 88% Calm Calm -- 29.88 in1011.9 mb - 0.00 in0.0 mm 0.00 in0.0 mm
06:27 AM 65.8°F18.8°C 62.2°F16.8°C 88% Calm Calm -- 29.89 in1012.2 mb - 0.00 in0.0 mm 0.00 in0.0 mm
06:22 AM 65.8°F18.8°C 62.2°F16.8°C 88% Calm Calm -- 29.89 in1012.2 mb - 0.00 in0.0 mm 0.00 in0.0 mm
06:17 AM 66.0°F18.9°C 62.4°F16.9°C 88% Calm Calm -- 29.89 in1012.2 mb - 0.00 in0.0 mm 0.00 in0.0 mm
06:12 AM 66.0°F18.9°C 62.1°F16.7°C 87% Calm Calm -- 29.89 in1012.2 mb - 0.00 in0.0 mm 0.00 in0.0 mm
06:07 AM 66.4°F19.1°C 62.4°F16.9°C 87% Calm Calm -- 29.89 in1012.2 mb - 0.00 in0.0 mm 0.00 in0.0 mm
06:02 AM 66.6°F19.2°C 62.2°F16.8°C 86% Calm Calm -- 29.89 in1012.2 mb - 0.00 in0.0 mm 0.00 in0.0 mm
05:57 AM 66.7°F19.3°C 62.4°F16.9°C 86% Calm Calm -- 29.89 in1012.2 mb - 0.00 in0.0 mm 0.00 in0.0 mm
05:52 AM 67.1°F19.5°C 62.4°F16.9°C 85% Calm Calm -- 29.89 in1012.2 mb - 0.00 in0.0 mm 0.00 in0.0 mm
05:47 AM 67.6°F19.8°C 62.6°F17.0°C 84% 0.9 mph NNW1.4 kmh NNW -- 29.89 in1012.2 mb - 0.00 in0.0 mm 0.00 in0.0 mm
05:42 AM 68.4°F20.2°C 63.0°F17.2°C 83% 0.9 mph NNW1.4 kmh NNW 0.9 mph1.4 kmh 29.89 in1012.2 mb - 0.00 in0.0 mm 0.00 in0.0 mm
05:37 AM 68.4°F20.2°C 63.0°F17.2°C 83% 0.9 mph NNW1.4 kmh NNW 2.0 mph3.2 kmh 29.89 in1012.2 mb - 0.00 in0.0 mm 0.00 in0.0 mm
05:32 AM 68.0°F20.0°C 62.6°F17.0°C 83% 0.9 mph WSW1.4 kmh WSW -- 29.89 in1012.2 mb - 0.00 in0.0 mm 0.00 in0.0 mm
05:27 AM 67.6°F19.8°C 62.6°F17.0°C 84% 0.9 mph WSW1.4 kmh WSW 2.0 mph3.2 kmh 29.89 in1012.2 mb - 0.00 in0.0 mm 0.00 in0.0 mm
05:22 AM 67.5°F19.7°C 62.8°F17.1°C 85% 0.9 mph SW1.4 kmh SW -- 29.89 in1012.2 mb - 0.00 in0.0 mm 0.00 in0.0 mm
05:17 AM 67.6°F19.8°C 63.0°F17.2°C 85% Calm Calm -- 29.89 in1012.2 mb - 0.00 in0.0 mm 0.00 in0.0 mm
05:12 AM 67.8°F19.9°C 62.8°F17.1°C 84% Calm Calm -- 29.89 in1012.2 mb - 0.00 in0.0 mm 0.00 in0.0 mm
05:07 AM 68.4°F20.2°C 63.0°F17.2°C 83% Calm Calm -- 29.89 in1012.2 mb - 0.00 in0.0 mm 0.00 in0.0 mm
05:02 AM 68.5°F20.3°C 62.8°F17.1°C 82% 0.9 mph WNW1.4 kmh WNW -- 29.89 in1012.2 mb - 0.00 in0.0 mm 0.00 in0.0 mm
04:57 AM 68.5°F20.3°C 62.8°F17.1°C 82% 0.9 mph WSW1.4 kmh WSW -- 29.89 in1012.2 mb - 0.00 in0.0 mm 0.00 in0.0 mm
04:52 AM 68.5°F20.3°C 62.8°F17.1°C 82% 2.0 mph SW3.2 kmh SW -- 29.89 in1012.2 mb - 0.00 in0.0 mm 0.00 in0.0 mm
04:47 AM 68.2°F20.1°C 62.8°F17.1°C 83% 2.0 mph SW3.2 kmh SW 0.9 mph1.4 kmh 29.89 in1012.2 mb - 0.00 in0.0 mm 0.00 in0.0 mm
04:42 AM 67.8°F19.9°C 62.8°F17.1°C 84% 2.0 mph S3.2 kmh S -- 29.89 in1012.2 mb - 0.00 in0.0 mm 0.00 in0.0 mm
04:37 AM 67.3°F19.6°C 63.0°F17.2°C 86% 2.0 mph S3.2 kmh S 2.0 mph3.2 kmh 29.89 in1012.2 mb - 0.00 in0.0 mm 0.00 in0.0 mm
04:32 AM 66.6°F19.2°C 63.0°F17.2°C 88% 2.0 mph SSW3.2 kmh SSW -- 29.89 in1012.2 mb - 0.00 in0.0 mm 0.00 in0.0 mm
04:27 AM 65.8°F18.8°C 62.4°F16.9°C 89% 2.0 mph SW3.2 kmh SW 0.9 mph1.4 kmh 29.90 in1012.5 mb - 0.00 in0.0 mm 0.00 in0.0 mm
04:22 AM 65.5°F18.6°C 62.4°F16.9°C 90% 2.0 mph S3.2 kmh S 4.0 mph6.4 kmh 29.90 in1012.5 mb - 0.00 in0.0 mm 0.00 in0.0 mm
04:17 AM 65.1°F18.4°C 62.1°F16.7°C 90% 0.9 mph SW1.4 kmh SW 2.9 mph4.7 kmh 29.90 in1012.5 mb - 0.00 in0.0 mm 0.00 in0.0 mm
04:12 AM 65.1°F18.4°C 62.1°F16.7°C 90% Calm Calm 2.0 mph3.2 kmh 29.90 in1012.5 mb - 0.00 in0.0 mm 0.00 in0.0 mm
04:07 AM 65.1°F18.4°C 62.1°F16.7°C 90% Calm Calm 0.9 mph1.4 kmh 29.91 in1012.9 mb - 0.00 in0.0 mm 0.00 in0.0 mm
04:02 AM 65.1°F18.4°C 62.1°F16.7°C 90% Calm Calm -- 29.91 in1012.9 mb - 0.00 in0.0 mm 0.00 in0.0 mm
03:57 AM 65.3°F18.5°C 62.1°F16.7°C 89% Calm Calm -- 29.91 in1012.9 mb - 0.00 in0.0 mm 0.00 in0.0 mm
03:52 AM 65.3°F18.5°C 62.1°F16.7°C 89% Calm Calm -- 29.91 in1012.9 mb - 0.00 in0.0 mm 0.00 in0.0 mm
03:47 AM 65.5°F18.6°C 62.2°F16.8°C 89% Calm Calm -- 29.92 in1013.2 mb - 0.00 in0.0 mm 0.00 in0.0 mm
03:42 AM 65.5°F18.6°C 62.2°F16.8°C 89% Calm Calm -- 29.92 in1013.2 mb - 0.00 in0.0 mm 0.00 in0.0 mm
03:37 AM 65.7°F18.7°C 62.1°F16.7°C 88% Calm Calm -- 29.92 in1013.2 mb - 0.00 in0.0 mm 0.00 in0.0 mm
03:32 AM 65.7°F18.7°C 62.1°F16.7°C 88% Calm Calm -- 29.92 in1013.2 mb - 0.00 in0.0 mm 0.00 in0.0 mm
03:27 AM 65.8°F18.8°C 62.2°F16.8°C 88% Calm Calm -- 29.93 in1013.5 mb - 0.00 in0.0 mm 0.00 in0.0 mm
03:22 AM 66.0°F18.9°C 62.1°F16.7°C 87% Calm Calm -- 29.93 in1013.5 mb - 0.00 in0.0 mm 0.00 in0.0 mm
03:17 AM 66.0°F18.9°C 62.1°F16.7°C 87% Calm Calm -- 29.93 in1013.5 mb - 0.00 in0.0 mm 0.00 in0.0 mm
03:12 AM 66.4°F19.1°C 62.4°F16.9°C 87% Calm Calm -- 29.93 in1013.5 mb - 0.00 in0.0 mm 0.00 in0.0 mm
03:07 AM 66.6°F19.2°C 62.2°F16.8°C 86% Calm Calm -- 29.93 in1013.5 mb - 0.00 in0.0 mm 0.00 in0.0 mm
03:02 AM 66.7°F19.3°C 62.4°F16.9°C 86% Calm Calm -- 29.94 in1013.9 mb - 0.00 in0.0 mm 0.00 in0.0 mm
02:57 AM 66.9°F19.4°C 62.6°F17.0°C 86% Calm Calm -- 29.94 in1013.9 mb - 0.00 in0.0 mm 0.00 in0.0 mm
02:52 AM 67.3°F19.6°C 62.6°F17.0°C 85% Calm Calm -- 29.94 in1013.9 mb - 0.00 in0.0 mm 0.00 in0.0 mm
02:47 AM 67.5°F19.7°C 62.8°F17.1°C 85% Calm Calm -- 29.94 in1013.9 mb - 0.00 in0.0 mm 0.00 in0.0 mm
02:42 AM 67.6°F19.8°C 63.0°F17.2°C 85% Calm Calm -- 29.94 in1013.9 mb - 0.00 in0.0 mm 0.00 in0.0 mm
02:37 AM 68.0°F20.0°C 63.0°F17.2°C 84% Calm Calm -- 29.94 in1013.9 mb - 0.00 in0.0 mm 0.00 in0.0 mm
02:32 AM 68.2°F20.1°C 63.1°F17.3°C 84% Calm Calm -- 29.94 in1013.9 mb - 0.00 in0.0 mm 0.00 in0.0 mm
02:27 AM 68.2°F20.1°C 62.8°F17.1°C 83% Calm Calm -- 29.95 in1014.2 mb - 0.00 in0.0 mm 0.00 in0.0 mm
02:22 AM 68.2°F20.1°C 62.8°F17.1°C 83% Calm Calm -- 29.94 in1013.9 mb - 0.00 in0.0 mm 0.00 in0.0 mm
02:17 AM 68.2°F20.1°C 62.8°F17.1°C 83% Calm Calm -- 29.94 in1013.9 mb - 0.00 in0.0 mm 0.00 in0.0 mm
02:12 AM 68.2°F20.1°C 62.8°F17.1°C 83% 0.9 mph WSW1.4 kmh WSW -- 29.94 in1013.9 mb - 0.00 in0.0 mm 0.00 in0.0 mm
02:07 AM 68.2°F20.1°C 62.8°F17.1°C 83% 0.9 mph WSW1.4 kmh WSW -- 29.94 in1013.9 mb - 0.00 in0.0 mm 0.00 in0.0 mm
02:02 AM 68.2°F20.1°C 62.8°F17.1°C 83% 0.9 mph SW1.4 kmh SW 2.9 mph4.7 kmh 29.94 in1013.9 mb - 0.00 in0.0 mm 0.00 in0.0 mm
01:57 AM 68.2°F20.1°C 62.8°F17.1°C 83% Calm Calm -- 29.94 in1013.9 mb - 0.00 in0.0 mm 0.00 in0.0 mm
01:52 AM 68.4°F20.2°C 63.0°F17.2°C 83% 0.9 mph SW1.4 kmh SW -- 29.94 in1013.9 mb - 0.00 in0.0 mm 0.00 in0.0 mm
01:47 AM 68.4°F20.2°C 62.6°F17.0°C 82% 2.0 mph SW3.2 kmh SW -- 29.94 in1013.9 mb - 0.00 in0.0 mm 0.00 in0.0 mm
01:42 AM 68.4°F20.2°C 62.6°F17.0°C 82% 2.9 mph SW4.7 kmh SW 0.9 mph1.4 kmh 29.94 in1013.9 mb - 0.00 in0.0 mm 0.00 in0.0 mm
01:37 AM 68.4°F20.2°C 62.6°F17.0°C 82% 2.9 mph SW4.7 kmh SW 2.9 mph4.7 kmh 29.94 in1013.9 mb - 0.00 in0.0 mm 0.00 in0.0 mm
01:32 AM 68.4°F20.2°C 62.6°F17.0°C 82% 2.0 mph S3.2 kmh S 4.0 mph6.4 kmh 29.95 in1014.2 mb - 0.00 in0.0 mm 0.00 in0.0 mm
01:27 AM 68.4°F20.2°C 62.6°F17.0°C 82% 2.0 mph S3.2 kmh S 4.9 mph7.9 kmh 29.95 in1014.2 mb - 0.00 in0.0 mm 0.00 in0.0 mm
01:22 AM 68.5°F20.3°C 62.4°F16.9°C 81% 2.0 mph S3.2 kmh S 2.0 mph3.2 kmh 29.95 in1014.2 mb - 0.00 in0.0 mm 0.00 in0.0 mm
01:17 AM 68.7°F20.4°C 62.6°F17.0°C 81% 2.0 mph S3.2 kmh S 0.9 mph1.4 kmh 29.96 in1014.6 mb - 0.00 in0.0 mm 0.00 in0.0 mm
01:12 AM 68.7°F20.4°C 62.6°F17.0°C 81% 2.0 mph S3.2 kmh S 2.0 mph3.2 kmh 29.96 in1014.6 mb - 0.00 in0.0 mm 0.00 in0.0 mm
01:07 AM 68.7°F20.4°C 62.6°F17.0°C 81% 2.0 mph SW3.2 kmh SW -- 29.96 in1014.6 mb - 0.00 in0.0 mm 0.00 in0.0 mm
01:02 AM 68.7°F20.4°C 62.6°F17.0°C 81% 2.9 mph SW4.7 kmh SW 2.0 mph3.2 kmh 29.96 in1014.6 mb - 0.00 in0.0 mm 0.00 in0.0 mm
12:57 AM 68.7°F20.4°C 62.6°F17.0°C 81% 2.9 mph S4.7 kmh S 2.9 mph4.7 kmh 29.96 in1014.6 mb - 0.00 in0.0 mm 0.00 in0.0 mm
12:52 AM 68.7°F20.4°C 62.6°F17.0°C 81% 2.0 mph S3.2 kmh S 2.0 mph3.2 kmh 29.96 in1014.6 mb - 0.00 in0.0 mm 0.00 in0.0 mm
12:47 AM 68.7°F20.4°C 62.6°F17.0°C 81% 2.9 mph SSW4.7 kmh SSW 2.9 mph4.7 kmh 29.96 in1014.6 mb - 0.00 in0.0 mm 0.00 in0.0 mm
12:42 AM 68.7°F20.4°C 62.6°F17.0°C 81% 2.9 mph S4.7 kmh S 0.9 mph1.4 kmh 29.96 in1014.6 mb - 0.00 in0.0 mm 0.00 in0.0 mm
12:37 AM 68.7°F20.4°C 62.6°F17.0°C 81% 2.9 mph SW4.7 kmh SW 4.9 mph7.9 kmh 29.96 in1014.6 mb - 0.00 in0.0 mm 0.00 in0.0 mm
12:32 AM 68.7°F20.4°C 62.6°F17.0°C 81% 2.0 mph SSW3.2 kmh SSW 2.9 mph4.7 kmh 29.97 in1014.9 mb - 0.00 in0.0 mm 0.00 in0.0 mm
12:27 AM 68.9°F20.5°C 62.8°F17.1°C 81% 2.9 mph SSW4.7 kmh SSW 0.9 mph1.4 kmh 29.97 in1014.9 mb - 0.00 in0.0 mm 0.00 in0.0 mm
12:22 AM 69.1°F20.6°C 63.0°F17.2°C 81% 2.9 mph SW4.7 kmh SW 2.9 mph4.7 kmh 29.97 in1014.9 mb - 0.00 in0.0 mm 0.00 in0.0 mm
12:17 AM 69.1°F20.6°C 63.0°F17.2°C 81% 2.9 mph SSW4.7 kmh SSW 2.0 mph3.2 kmh 29.97 in1014.9 mb - 0.00 in0.0 mm 0.00 in0.0 mm
12:12 AM 69.1°F20.6°C 63.0°F17.2°C 81% 2.9 mph SSW4.7 kmh SSW 2.9 mph4.7 kmh 29.97 in1014.9 mb - 0.00 in0.0 mm 0.00 in0.0 mm
12:07 AM 69.1°F20.6°C 63.0°F17.2°C 81% 2.9 mph S4.7 kmh S 2.0 mph3.2 kmh 29.97 in1014.9 mb - 0.00 in0.0 mm 0.00 in0.0 mm
12:02 AM 69.1°F20.6°C 63.3°F17.4°C 82% 2.9 mph SSW4.7 kmh SSW 0.9 mph1.4 kmh 29.97 in1014.9 mb - 0.00 in0.0 mm 0.02 in0.5 mm